createdAt,value
2023-04-07T00:01:34.059Z,23.83
2023-04-07T00:04:02.547Z,20.70
2023-04-07T00:06:30.780Z,35.30
2023-04-07T00:08:58.539Z,21.83
2023-04-07T00:11:27.877Z,25.13
2023-04-07T00:13:55.981Z,24.93
2023-04-07T00:16:24.231Z,20.27
2023-04-07T00:18:52.372Z,50.17
2023-04-07T00:21:20.244Z,23.80
2023-04-07T00:23:48.443Z,25.40
2023-04-07T00:26:16.622Z,22.73
2023-04-07T00:28:45.871Z,38.63
2023-04-07T00:31:13.854Z,22.90
2023-04-07T00:33:42.085Z,22.50
2023-04-07T00:36:10.509Z,27.63
2023-04-07T00:38:38.261Z,29.20
2023-04-07T00:41:06.469Z,23.33
2023-04-07T00:43:34.532Z,24.17
2023-04-07T00:46:03.914Z,24.27
2023-04-07T00:48:32.033Z,26.00
2023-04-07T00:50:59.995Z,34.10
2023-04-07T00:53:27.759Z,22.27
2023-04-07T00:55:55.813Z,24.83
2023-04-07T00:58:23.705Z,25.30
2023-04-07T01:00:58.055Z,30.40
2023-04-07T01:03:32.851Z,20.37
2023-04-07T01:06:02.831Z,26.73
2023-04-07T01:08:34.776Z,39.67
2023-04-07T01:11:08.957Z,27.93
2023-04-07T01:13:38.819Z,31.03
2023-04-07T01:16:12.727Z,22.37
2023-04-07T01:18:42.431Z,33.37
2023-04-07T01:21:16.471Z,22.17
2023-04-07T01:23:53.937Z,23.77
2023-04-07T01:26:24.920Z,21.80
2023-04-07T01:29:33.272Z,40.67
2023-04-07T01:32:02.486Z,28.83
2023-04-07T01:34:31.814Z,29.67
2023-04-07T01:37:00.912Z,28.87
2023-04-07T01:39:29.121Z,31.20
2023-04-07T01:41:57.386Z,27.87
2023-04-07T01:44:26.090Z,30.97
2023-04-07T01:46:55.690Z,29.73
2023-04-07T01:49:24.846Z,35.00
2023-04-07T01:51:52.713Z,30.03
2023-04-07T01:54:20.597Z,33.87
2023-04-07T01:56:48.339Z,27.83
2023-04-07T01:59:16.120Z,24.93
2023-04-07T02:01:44.145Z,26.93
2023-04-07T02:04:17.902Z,26.90
2023-04-07T02:06:50.224Z,27.37
2023-04-07T02:09:18.261Z,22.40
2023-04-07T02:11:47.119Z,21.87
2023-04-07T02:14:15.612Z,30.27
2023-04-07T02:16:45.626Z,22.50
2023-04-07T02:19:16.027Z,23.57
2023-04-07T02:21:45.739Z,23.83
2023-04-07T02:24:13.732Z,22.50
2023-04-07T02:26:41.887Z,22.93
2023-04-07T02:29:09.717Z,21.10
2023-04-07T02:31:37.542Z,28.03
2023-04-07T02:34:05.310Z,21.60
2023-04-07T02:36:34.512Z,20.77
2023-04-07T02:39:02.343Z,32.77
2023-04-07T02:41:30.128Z,26.87
2023-04-07T02:43:58.196Z,19.00
2023-04-07T02:46:26.125Z,22.33
2023-04-07T02:48:53.971Z,31.53
2023-04-07T02:51:21.748Z,19.07
2023-04-07T02:53:50.956Z,32.77
2023-04-07T02:56:18.774Z,29.97
2023-04-07T02:58:46.734Z,35.33
2023-04-07T03:01:14.619Z,19.17
2023-04-07T03:03:44.980Z,28.00
2023-04-07T03:06:12.972Z,31.43
2023-04-07T03:08:40.860Z,32.77
2023-04-07T03:11:10.013Z,19.97
2023-04-07T03:13:37.789Z,25.80
2023-04-07T03:16:05.697Z,16.37
2023-04-07T03:18:33.535Z,22.00
2023-04-07T03:21:01.319Z,17.13
2023-04-07T03:23:29.791Z,30.00
2023-04-07T03:25:58.752Z,26.57
2023-04-07T03:28:27.933Z,19.93
2023-04-07T03:30:55.774Z,18.63
2023-04-07T03:33:23.555Z,23.03
2023-04-07T03:35:51.524Z,16.63
2023-04-07T03:38:19.398Z,17.57
2023-04-07T03:40:47.927Z,15.13
2023-04-07T03:43:16.303Z,16.00
2023-04-07T03:45:45.457Z,14.87
2023-04-07T03:48:13.503Z,15.83
2023-04-07T03:50:41.542Z,14.97
2023-04-07T03:53:09.464Z,14.33
2023-04-07T03:55:37.664Z,15.70
2023-04-07T03:58:05.452Z,16.50
2023-04-07T04:00:33.686Z,16.93
2023-04-07T04:03:03.009Z,18.13
2023-04-07T04:05:30.884Z,17.57
2023-04-07T04:07:58.676Z,17.57
2023-04-07T04:10:27.292Z,25.83
2023-04-07T04:12:55.127Z,18.93
2023-04-07T04:15:23.076Z,20.20
2023-04-07T04:17:51.008Z,18.63
2023-04-07T04:20:22.217Z,18.77
2023-04-07T04:22:50.085Z,26.37
2023-04-07T04:25:18.233Z,20.10
2023-04-07T04:27:46.190Z,24.23
2023-04-07T04:30:14.208Z,19.30
2023-04-07T04:32:42.195Z,20.13
2023-04-07T04:35:10.966Z,20.23
2023-04-07T04:37:40.135Z,22.77
2023-04-07T04:40:09.497Z,23.87
2023-04-07T04:42:37.370Z,20.37
2023-04-07T04:45:05.900Z,19.83
2023-04-07T04:47:33.773Z,31.33
2023-04-07T04:50:01.723Z,24.43
2023-04-07T04:52:30.055Z,21.03
2023-04-07T04:54:59.244Z,23.53
2023-04-07T04:57:27.090Z,22.20
2023-04-07T04:59:54.840Z,21.20
2023-04-07T05:02:22.970Z,31.90
2023-04-07T05:04:51.034Z,26.10
2023-04-07T05:07:18.859Z,23.23
2023-04-07T05:09:46.644Z,22.73
2023-04-07T05:12:16.225Z,27.07
2023-04-07T05:14:43.975Z,23.93
2023-04-07T05:17:11.785Z,21.47
2023-04-07T05:19:39.561Z,26.97
2023-04-07T05:22:07.335Z,21.20
2023-04-07T05:24:35.495Z,26.30
2023-04-07T05:27:03.281Z,28.13
2023-04-07T05:29:32.444Z,26.53
2023-04-07T05:32:01.569Z,24.27
2023-04-07T05:34:29.446Z,23.80
2023-04-07T05:36:57.252Z,43.53
2023-04-07T05:39:25.086Z,26.90
2023-04-07T05:41:53.148Z,24.63
2023-04-07T05:44:21.156Z,23.47
2023-04-07T05:46:50.275Z,28.57
2023-04-07T05:49:19.918Z,26.67
2023-04-07T05:51:49.170Z,24.77
2023-04-07T05:54:17.531Z,23.07
2023-04-07T05:56:45.523Z,22.23
2023-04-07T05:59:13.318Z,26.63
2023-04-07T06:01:41.273Z,22.73
2023-04-07T06:04:10.461Z,23.13
2023-04-07T06:06:38.668Z,23.33
2023-04-07T06:09:07.741Z,22.50
2023-04-07T06:11:36.097Z,22.60
2023-04-07T06:14:03.881Z,22.70
2023-04-07T06:16:32.024Z,23.00
2023-04-07T06:18:59.834Z,21.63
2023-04-07T06:21:29.022Z,20.40
2023-04-07T06:23:56.761Z,20.10
2023-04-07T06:26:24.674Z,20.77
2023-04-07T06:28:53.037Z,20.77
2023-04-07T06:31:21.173Z,21.07
2023-04-07T06:33:49.205Z,21.93
2023-04-07T06:36:17.459Z,18.90
2023-04-07T06:38:47.260Z,19.63
2023-04-07T06:41:17.174Z,21.23
2023-04-07T06:43:45.085Z,21.50
2023-04-07T06:46:12.960Z,19.70
2023-04-07T06:48:40.844Z,19.00
2023-04-07T06:51:08.698Z,20.73
2023-04-07T06:53:36.519Z,20.63
2023-04-07T06:56:06.983Z,19.70
2023-04-07T06:58:35.444Z,20.20
2023-04-07T07:01:03.889Z,17.10
2023-04-07T07:03:32.268Z,18.80
2023-04-07T07:06:00.751Z,19.33
2023-04-07T07:08:29.792Z,18.37
2023-04-07T07:10:57.667Z,18.30
2023-04-07T07:13:27.632Z,16.93
2023-04-07T07:15:55.525Z,16.00
2023-04-07T07:18:23.355Z,16.23
2023-04-07T07:20:51.672Z,16.07
2023-04-07T07:23:19.502Z,15.97
2023-04-07T07:25:47.267Z,16.77
2023-04-07T07:28:15.069Z,16.93
2023-04-07T07:30:44.250Z,16.23
2023-04-07T07:33:12.123Z,16.80
2023-04-07T07:35:40.572Z,16.67
2023-04-07T07:38:08.557Z,15.80
2023-04-07T07:40:36.332Z,16.23
2023-04-07T07:43:04.187Z,14.77
2023-04-07T07:45:31.980Z,15.27
2023-04-07T07:48:01.189Z,15.77
2023-04-07T07:50:29.133Z,17.57
2023-04-07T07:52:56.952Z,16.17
2023-04-07T07:55:24.894Z,15.50
2023-04-07T07:57:52.677Z,16.07
2023-04-07T08:00:20.927Z,15.73
2023-04-07T08:02:48.751Z,16.37
2023-04-07T08:05:17.896Z,15.43
2023-04-07T08:07:46.918Z,16.00
2023-04-07T08:10:14.968Z,14.60
2023-04-07T08:12:42.794Z,13.97
2023-04-07T08:15:11.249Z,14.57
2023-04-07T08:17:39.322Z,14.33
2023-04-07T08:20:10.498Z,14.53
2023-04-07T08:22:39.636Z,15.33
2023-04-07T08:25:07.621Z,15.87
2023-04-07T08:27:35.684Z,19.97
2023-04-07T08:30:06.436Z,13.80
2023-04-07T08:32:37.864Z,13.53
2023-04-07T08:35:06.384Z,14.67
2023-04-07T08:37:34.488Z,14.40
2023-04-07T08:40:04.877Z,12.60
2023-04-07T08:42:34.256Z,12.43
2023-04-07T08:45:04.765Z,11.73
2023-04-07T08:47:34.143Z,10.60
2023-04-07T08:50:03.818Z,11.57
2023-04-07T08:52:35.462Z,11.10
2023-04-07T08:55:06.950Z,13.40
2023-04-07T08:57:35.436Z,13.90
2023-04-07T09:00:05.839Z,11.40
2023-04-07T09:02:35.261Z,10.37
2023-04-07T09:05:05.452Z,12.20
2023-04-07T09:07:34.799Z,8.57
2023-04-07T09:10:04.482Z,6.83
2023-04-07T09:12:33.095Z,8.90
2023-04-07T09:15:01.470Z,9.17
2023-04-07T09:17:30.417Z,8.87
2023-04-07T09:19:59.073Z,8.60
2023-04-07T09:22:35.994Z,5.60
2023-04-07T09:25:18.375Z,3.20
2023-04-07T09:28:00.258Z,4.20
2023-04-07T09:30:29.261Z,4.33
2023-04-07T09:32:57.497Z,3.80
2023-04-07T09:35:26.544Z,2.40
2023-04-07T09:38:04.144Z,2.27
2023-04-07T09:40:34.116Z,2.67
2023-04-07T09:43:02.774Z,2.57
2023-04-07T09:45:35.144Z,2.53
2023-04-07T09:48:07.157Z,2.87
2023-04-07T09:50:36.527Z,3.00
2023-04-07T09:53:05.021Z,2.50
2023-04-07T09:55:35.025Z,3.13
2023-04-07T09:58:03.460Z,2.60
2023-04-07T10:00:31.250Z,2.30
2023-04-07T10:02:59.454Z,2.23
2023-04-07T10:05:27.414Z,1.80
2023-04-07T10:07:55.603Z,1.80
2023-04-07T10:10:23.506Z,1.50
2023-04-07T10:12:53.962Z,2.10
2023-04-07T10:15:21.877Z,1.90
2023-04-07T10:17:50.516Z,1.53
2023-04-07T10:20:20.853Z,1.80
2023-04-07T10:22:50.238Z,1.77
2023-04-07T10:25:20.074Z,1.50
2023-04-07T10:27:51.284Z,2.50
2023-04-07T10:30:24.221Z,1.73
2023-04-07T10:32:54.199Z,2.00
2023-04-07T10:35:23.124Z,1.60
2023-04-07T10:38:13.988Z,1.60
2023-04-07T10:40:43.087Z,1.70
2023-04-07T10:43:11.935Z,2.63
2023-04-07T10:45:59.673Z,2.40
2023-04-07T10:48:33.086Z,1.90
2023-04-07T10:51:17.762Z,1.70
2023-04-07T10:54:20.585Z,1.53
2023-04-07T10:57:17.084Z,1.80
2023-04-07T11:00:27.287Z,1.70
2023-04-07T11:02:56.552Z,1.77
2023-04-07T11:05:24.607Z,1.90
2023-04-07T11:07:55.232Z,1.97
2023-04-07T11:10:23.391Z,2.07
2023-04-07T11:13:07.952Z,1.80
2023-04-07T11:15:37.880Z,1.97
2023-04-07T11:18:14.630Z,2.10
2023-04-07T11:20:45.002Z,2.50
2023-04-07T11:23:14.323Z,2.10
2023-04-07T11:25:44.235Z,2.13
2023-04-07T11:28:13.345Z,2.30
2023-04-07T11:30:46.340Z,2.20
2023-04-07T11:33:20.255Z,1.90
2023-04-07T11:35:56.881Z,2.10
2023-04-07T11:38:26.155Z,1.90
2023-04-07T11:40:54.399Z,3.87
2023-04-07T11:43:24.135Z,2.50
2023-04-07T11:46:11.996Z,2.50
2023-04-07T11:48:42.450Z,2.30
2023-04-07T11:51:17.058Z,2.30
2023-04-07T11:53:45.157Z,2.40
2023-04-07T11:56:18.804Z,2.70
2023-04-07T11:58:49.913Z,3.40
2023-04-07T12:01:17.732Z,3.37
2023-04-07T12:04:01.875Z,3.07
2023-04-07T12:06:30.992Z,3.20
2023-04-07T12:08:58.965Z,3.23
2023-04-07T12:11:26.752Z,3.53
2023-04-07T12:13:54.940Z,2.80
2023-04-07T12:16:23.054Z,3.00
2023-04-07T12:18:51.471Z,3.27
2023-04-07T12:21:20.643Z,3.27
2023-04-07T12:23:49.026Z,2.90
2023-04-07T12:26:17.022Z,3.03
2023-04-07T12:28:45.344Z,3.00
2023-04-07T12:31:13.137Z,3.77
2023-04-07T12:33:40.899Z,3.20
2023-04-07T12:36:09.003Z,3.10
2023-04-07T12:38:38.254Z,3.10
2023-04-07T12:41:06.113Z,2.90
2023-04-07T12:43:33.993Z,3.67
2023-04-07T12:46:01.925Z,3.37
2023-04-07T12:48:29.735Z,3.20
2023-04-07T12:50:57.586Z,3.60
2023-04-07T12:53:25.707Z,3.37
2023-04-07T12:55:54.846Z,3.30
2023-04-07T12:58:22.683Z,3.13
2023-04-07T13:00:50.543Z,8.37
2023-04-07T13:03:18.597Z,3.77
2023-04-07T13:05:46.528Z,3.13
2023-04-07T13:08:14.314Z,3.90
2023-04-07T13:10:42.520Z,3.23
2023-04-07T13:13:11.741Z,4.40
2023-04-07T13:15:39.588Z,3.17
2023-04-07T13:18:08.231Z,3.47
2023-04-07T13:20:36.079Z,3.40
2023-04-07T13:23:08.390Z,3.37
2023-04-07T13:25:37.788Z,4.03
2023-04-07T13:28:05.915Z,3.53
2023-04-07T13:30:35.188Z,3.87
2023-04-07T13:33:03.191Z,4.00
2023-04-07T13:35:35.593Z,4.03
2023-04-07T13:38:04.317Z,4.23
2023-04-07T13:40:32.227Z,3.73
2023-04-07T13:43:01.069Z,3.70
2023-04-07T13:45:28.936Z,4.30
2023-04-07T13:47:58.174Z,3.80
2023-04-07T13:50:26.212Z,3.00
2023-04-07T13:52:54.036Z,3.60
2023-04-07T13:55:21.819Z,3.37
2023-04-07T13:57:49.636Z,3.60
2023-04-07T14:00:18.178Z,3.60
2023-04-07T14:02:48.476Z,4.40
2023-04-07T14:05:17.903Z,8.13
2023-04-07T14:07:45.736Z,4.20
2023-04-07T14:10:13.482Z,3.50
2023-04-07T14:12:41.326Z,3.60
2023-04-07T14:15:10.209Z,5.87
2023-04-07T14:17:38.232Z,3.30
2023-04-07T14:20:07.182Z,4.17
2023-04-07T14:22:36.357Z,4.20
2023-04-07T14:25:04.744Z,3.63
2023-04-07T14:27:33.454Z,3.57
2023-04-07T14:30:01.643Z,13.17
2023-04-07T14:32:30.377Z,8.53
2023-04-07T14:34:59.315Z,12.50
2023-04-07T14:37:28.535Z,3.60
2023-04-07T14:42:29.740Z,2.50
2023-04-07T14:44:57.930Z,2.57
2023-04-07T14:47:26.503Z,1.97
2023-04-07T14:49:54.398Z,1.70
2023-04-07T14:52:22.822Z,2.63
2023-04-07T14:54:50.581Z,1.90
2023-04-07T14:57:19.740Z,2.00
2023-04-07T14:59:48.400Z,1.90
2023-04-07T15:02:16.331Z,1.67
2023-04-07T15:04:44.325Z,1.80
2023-04-07T15:07:12.406Z,1.67
2023-04-07T15:09:40.176Z,1.70
2023-04-07T15:12:07.907Z,1.70
2023-04-07T15:14:37.074Z,2.93
2023-04-07T15:17:04.803Z,2.77
2023-04-07T15:19:32.666Z,6.83
2023-04-07T15:22:00.470Z,2.00
2023-04-07T15:24:29.368Z,5.00
2023-04-07T15:26:57.121Z,2.40
2023-04-07T15:29:24.919Z,2.00
2023-04-07T15:31:54.218Z,2.40
2023-04-07T15:34:22.032Z,2.10
2023-04-07T15:36:49.823Z,2.57
2023-04-07T15:39:17.632Z,2.80
2023-04-07T15:41:45.476Z,2.10
2023-04-07T15:44:18.492Z,2.10
2023-04-07T15:46:46.286Z,2.40
2023-04-07T15:49:20.030Z,2.33
2023-04-07T15:51:47.872Z,2.40
2023-04-07T15:54:15.918Z,2.20
2023-04-07T15:56:43.706Z,2.40
2023-04-07T15:59:11.459Z,2.50
2023-04-07T16:01:39.486Z,2.40
2023-04-07T16:04:07.547Z,2.40
2023-04-07T16:06:36.741Z,2.80
2023-04-07T16:09:05.401Z,3.23
2023-04-07T16:11:33.296Z,3.00
2023-04-07T16:14:01.095Z,3.03
2023-04-07T16:16:28.850Z,2.70
2023-04-07T16:18:56.757Z,2.07
2023-04-07T16:21:24.521Z,3.40
2023-04-07T16:23:53.917Z,2.57
2023-04-07T16:26:21.826Z,2.20
2023-04-07T16:28:51.745Z,2.53
2023-04-07T16:31:19.746Z,2.57
2023-04-07T16:33:47.865Z,4.20
2023-04-07T16:36:16.085Z,3.97
2023-04-07T16:38:43.877Z,2.47
2023-04-07T16:41:13.066Z,2.23
2023-04-07T16:43:40.863Z,1.87
2023-04-07T16:46:08.834Z,1.90
2023-04-07T16:48:36.634Z,2.20
2023-04-07T16:51:04.432Z,2.33
2023-04-07T16:53:32.271Z,2.30
2023-04-07T16:56:00.045Z,2.70
2023-04-07T16:58:29.176Z,17.57
2023-04-07T17:00:57.011Z,2.80
2023-04-07T17:03:25.028Z,3.80
2023-04-07T17:05:53.017Z,3.00
2023-04-07T17:08:21.139Z,2.40
2023-04-07T17:10:48.982Z,3.10
2023-04-07T17:13:16.913Z,2.63
2023-04-07T17:15:46.769Z,3.13
2023-04-07T17:18:14.690Z,3.00
2023-04-07T17:20:42.517Z,5.60
2023-04-07T17:23:10.395Z,3.13
2023-04-07T17:25:38.237Z,3.90
2023-04-07T17:28:06.008Z,3.43
2023-04-07T17:30:34.137Z,4.43
2023-04-07T17:33:03.641Z,3.90
2023-04-07T17:35:31.776Z,3.83
2023-04-07T17:38:02.595Z,3.27
2023-04-07T17:40:30.400Z,3.17
2023-04-07T17:42:58.846Z,3.27
2023-04-07T17:45:26.775Z,3.93
2023-04-07T17:47:54.918Z,3.33
2023-04-07T17:50:24.206Z,3.83
2023-04-07T17:52:52.093Z,9.03
2023-04-07T17:55:20.301Z,12.53
2023-04-07T17:57:48.048Z,7.87
2023-04-07T18:00:16.221Z,5.67
2023-04-07T18:02:44.201Z,5.10
2023-04-07T18:05:12.833Z,4.40
2023-04-07T18:07:41.949Z,4.30
2023-04-07T18:10:11.011Z,4.40
2023-04-07T18:12:39.564Z,4.37
2023-04-07T18:15:08.625Z,5.47
2023-04-07T18:17:36.462Z,5.10
2023-04-07T18:20:04.611Z,3.93
2023-04-07T18:22:32.910Z,4.40
2023-04-07T18:25:02.076Z,4.20
2023-04-07T18:27:29.865Z,4.60
2023-04-07T18:29:57.670Z,4.43
2023-04-07T18:32:25.497Z,4.20
2023-04-07T18:34:54.941Z,4.23
2023-04-07T18:37:23.266Z,4.27
2023-04-07T18:39:52.105Z,4.97
2023-04-07T18:42:21.271Z,4.83
2023-04-07T18:44:49.093Z,5.30
2023-04-07T18:47:17.323Z,5.53
2023-04-07T18:49:45.067Z,5.03
2023-04-07T18:52:12.885Z,5.10
2023-04-07T18:54:40.800Z,6.03
2023-04-07T18:57:08.555Z,6.33
2023-04-07T18:59:37.685Z,9.37
2023-04-07T19:02:05.624Z,14.07
2023-04-07T19:04:33.441Z,9.33
2023-04-07T19:07:01.223Z,25.37
2023-04-07T19:09:29.620Z,9.07
2023-04-07T19:11:58.046Z,7.37
2023-04-07T19:14:26.030Z,7.00
2023-04-07T19:16:55.602Z,7.77
2023-04-07T19:19:23.406Z,14.80
2023-04-07T19:21:51.533Z,10.10
2023-04-07T19:24:19.291Z,11.50
2023-04-07T19:26:47.211Z,6.93
2023-04-07T19:29:14.985Z,6.93
2023-04-07T19:31:42.809Z,8.07
2023-04-07T19:34:12.037Z,6.93
2023-04-07T19:36:39.832Z,7.30
2023-04-07T19:39:07.600Z,6.80
2023-04-07T19:41:35.420Z,7.60
2023-04-07T19:44:03.165Z,6.97
2023-04-07T19:46:33.274Z,6.93
2023-04-07T19:49:01.256Z,7.63
2023-04-07T19:51:30.428Z,9.80
2023-04-07T19:53:58.201Z,8.53
2023-04-07T19:56:26.122Z,8.90
2023-04-07T19:58:53.952Z,9.40
2023-04-07T20:01:21.951Z,8.27
2023-04-07T20:03:49.886Z,10.77
2023-04-07T20:06:19.032Z,7.77
2023-04-07T20:08:48.657Z,7.30
2023-04-07T20:11:16.626Z,6.77
2023-04-07T20:13:44.472Z,7.07
2023-04-07T20:16:12.257Z,6.30
2023-04-07T20:18:40.018Z,6.13
2023-04-07T20:21:07.934Z,6.40
2023-04-07T20:23:35.794Z,6.90
2023-04-07T20:26:04.976Z,6.60
2023-04-07T20:28:32.756Z,8.80
2023-04-07T20:31:00.929Z,10.07
2023-04-07T20:33:28.774Z,8.80
2023-04-07T20:35:56.603Z,7.83
2023-04-07T20:38:25.042Z,8.63
2023-04-07T20:40:53.291Z,8.80
2023-04-07T20:43:23.706Z,12.20
2023-04-07T20:45:52.277Z,8.43
2023-04-07T20:48:23.847Z,7.27
2023-04-07T20:50:52.150Z,18.77
2023-04-07T20:53:20.056Z,16.77
2023-04-07T20:55:48.655Z,12.63
2023-04-07T20:58:17.791Z,14.20
2023-04-07T21:00:47.042Z,7.97
2023-04-07T21:03:15.214Z,8.33
2023-04-07T21:05:43.515Z,12.70
2023-04-07T21:08:13.230Z,8.13
2023-04-07T21:10:42.328Z,13.53
2023-04-07T21:13:10.091Z,12.73
2023-04-07T21:15:37.987Z,8.80
2023-04-07T21:18:07.250Z,9.00
2023-04-07T21:20:36.981Z,8.97
2023-04-07T21:23:05.382Z,8.60
2023-04-07T21:25:33.505Z,9.67
2023-04-07T21:28:01.297Z,10.50
2023-04-07T21:30:29.492Z,9.83
2023-04-07T21:32:57.470Z,11.20
2023-04-07T21:35:29.522Z,9.97
2023-04-07T21:37:57.676Z,9.63
2023-04-07T21:40:25.620Z,8.63
2023-04-07T21:42:53.689Z,9.00
2023-04-07T21:45:21.890Z,10.00
2023-04-07T21:47:49.959Z,9.60
2023-04-07T21:50:18.916Z,8.77
2023-04-07T21:52:50.741Z,9.97
2023-04-07T21:55:19.105Z,10.50
2023-04-07T21:57:47.036Z,10.77
2023-04-07T22:00:16.561Z,10.93
2023-04-07T22:02:45.484Z,9.63
2023-04-07T22:05:13.898Z,10.53
2023-04-07T22:07:41.770Z,12.20
2023-04-07T22:10:11.680Z,12.43
2023-04-07T22:12:39.526Z,11.87
2023-04-07T22:15:08.632Z,11.87
2023-04-07T22:17:36.662Z,11.60
2023-04-07T22:20:05.140Z,12.53
2023-04-07T22:22:33.406Z,12.13
2023-04-07T22:25:01.273Z,12.87
2023-04-07T22:27:30.651Z,12.23
2023-04-07T22:29:58.666Z,12.40
2023-04-07T22:32:26.822Z,12.00
2023-04-07T22:34:54.652Z,12.87
2023-04-07T22:37:22.717Z,11.70
2023-04-07T22:39:50.693Z,11.10
2023-04-07T22:42:18.519Z,12.00
2023-04-07T22:44:47.783Z,11.13
2023-04-07T22:47:16.066Z,11.27
2023-04-07T22:49:43.860Z,10.70
2023-04-07T22:52:11.967Z,11.60
2023-04-07T22:54:39.956Z,11.70
2023-04-07T22:57:07.764Z,11.50
2023-04-07T22:59:35.962Z,11.70
2023-04-07T23:02:05.498Z,11.67
2023-04-07T23:04:33.743Z,11.90
2023-04-07T23:07:01.850Z,11.77
2023-04-07T23:09:29.737Z,12.57
2023-04-07T23:11:57.933Z,12.43
2023-04-07T23:14:25.924Z,12.40
2023-04-07T23:16:54.562Z,11.00
2023-04-07T23:19:24.140Z,11.33
2023-04-07T23:21:52.306Z,11.53
2023-04-07T23:24:20.588Z,12.03
2023-04-07T23:26:48.361Z,12.30
2023-04-07T23:29:16.488Z,13.27
2023-04-07T23:31:44.401Z,12.63
2023-04-07T23:34:12.257Z,12.20
2023-04-07T23:36:42.069Z,11.77
2023-04-07T23:39:10.119Z,12.23
2023-04-07T23:41:38.286Z,12.90
2023-04-07T23:44:07.031Z,12.63
2023-04-07T23:46:35.664Z,12.13
2023-04-07T23:49:03.518Z,13.87
2023-04-07T23:51:31.739Z,12.67
2023-04-07T23:54:01.220Z,12.63
2023-04-07T23:56:29.781Z,12.50
2023-04-07T23:58:57.660Z,12.00
